Time;durP1;ratioP1;P1;durP2;ratioP2;P2;SDS_P1;SDS_P2;PMS_P1;PMS_P2;Temp;Humidity;BMP_temperature;BMP_pressure;BME280_temperature;BME280_humidity;BME280_pressure;Samples;Min_cycle;Max_cycle;Signal;HPM_P1;HPM_P2
2024/01/20 00:00:54;;;;;;;32.67;20.85;;;;;;;;;;5051721;28;20386;-60
2024/01/20 00:03:19;;;;;;;37.97;22.13;;;;;;;;;;5052528;28;20409;-60
2024/01/20 00:05:44;;;;;;;35.80;21.73;;;;;;;;;;5052847;28;20425;-60
2024/01/20 00:08:10;;;;;;;35.87;21.97;;;;;;;;;;5051411;28;20421;-61
2024/01/20 00:10:35;;;;;;;39.10;23.83;;;;;;;;;;5052701;28;20419;-60
2024/01/20 00:13:01;;;;;;;35.83;22.63;;;;;;;;;;5052476;28;20480;-61
2024/01/20 00:15:26;;;;;;;35.50;22.23;;;;;;;;;;5051472;28;20406;-60
2024/01/20 00:17:51;;;;;;;35.57;22.00;;;;;;;;;;5052348;28;20741;-60
2024/01/20 00:20:16;;;;;;;35.73;21.57;;;;;;;;;;5051013;28;20398;-60
2024/01/20 00:22:42;;;;;;;36.10;22.77;;;;;;;;;;5051550;28;20471;-61
2024/01/20 00:25:08;;;;;;;38.53;22.63;;;;;;;;;;5051757;28;20401;-60
2024/01/20 00:27:34;;;;;;;37.63;22.33;;;;;;;;;;5033964;28;20843;-60
2024/01/20 00:29:59;;;;;;;40.50;23.77;;;;;;;;;;5051827;28;20475;-60
2024/01/20 00:32:24;;;;;;;36.83;22.53;;;;;;;;;;5051695;28;20914;-60
2024/01/20 00:34:50;;;;;;;39.92;23.27;;;;;;;;;;5051760;28;20424;-60
2024/01/20 00:37:15;;;;;;;39.03;22.60;;;;;;;;;;5051882;28;20417;-60
2024/01/20 00:39:40;;;;;;;36.10;22.53;;;;;;;;;;5052276;28;20398;-60
2024/01/20 00:42:05;;;;;;;42.10;23.97;;;;;;;;;;5051037;28;20433;-61
2024/01/20 00:44:31;;;;;;;38.87;23.17;;;;;;;;;;5051937;28;20740;-60
2024/01/20 00:46:56;;;;;;;48.37;27.10;;;;;;;;;;5051793;28;21179;-60
2024/01/20 00:49:21;;;;;;;53.13;29.27;;;;;;;;;;5050776;28;20390;-60
2024/01/20 00:51:47;;;;;;;49.57;29.00;;;;;;;;;;5051847;28;20405;-60
2024/01/20 00:54:12;;;;;;;45.60;26.67;;;;;;;;;;5051549;28;20485;-60
2024/01/20 00:56:37;;;;;;;38.83;24.37;;;;;;;;;;5051172;28;20385;-60
2024/01/20 00:59:02;;;;;;;41.77;25.23;;;;;;;;;;5051578;28;20406;-60
2024/01/20 01:01:28;;;;;;;40.33;23.30;;;;;;;;;;5050991;28;20833;-60
2024/01/20 01:03:53;;;;;;;38.77;23.13;;;;;;;;;;5051034;28;20405;-60
2024/01/20 01:06:18;;;;;;;41.47;23.97;;;;;;;;;;5051244;28;20402;-60
2024/01/20 01:08:44;;;;;;;39.70;23.80;;;;;;;;;;5051652;28;20421;-60
2024/01/20 01:11:09;;;;;;;38.60;23.73;;;;;;;;;;5050251;28;20473;-61
2024/01/20 01:13:37;;;;;;;43.30;24.73;;;;;;;;;;5051856;28;20393;-60
2024/01/20 01:16:02;;;;;;;40.85;24.23;;;;;;;;;;5050601;28;20493;-61
2024/01/20 01:18:28;;;;;;;44.80;25.83;;;;;;;;;;5050584;28;20472;-60
2024/01/20 01:20:53;;;;;;;46.00;26.50;;;;;;;;;;5051503;28;20401;-60
2024/01/20 01:23:18;;;;;;;42.27;25.13;;;;;;;;;;5050714;28;20410;-61
2024/01/20 01:25:43;;;;;;;39.63;23.57;;;;;;;;;;5050590;28;20903;-60
2024/01/20 01:28:09;;;;;;;42.70;26.13;;;;;;;;;;5050765;28;20417;-60
2024/01/20 01:30:34;;;;;;;43.53;24.90;;;;;;;;;;5050221;28;20523;-60
2024/01/20 01:32:59;;;;;;;46.90;25.70;;;;;;;;;;5051004;28;20416;-60
2024/01/20 01:35:24;;;;;;;42.60;24.80;;;;;;;;;;5050492;28;20793;-60
2024/01/20 01:37:50;;;;;;;42.60;25.70;;;;;;;;;;5050245;28;20477;-60
2024/01/20 01:40:15;;;;;;;43.90;24.40;;;;;;;;;;5050873;28;20757;-60
2024/01/20 01:42:40;;;;;;;39.17;23.93;;;;;;;;;;5051114;28;20433;-60
2024/01/20 01:45:06;;;;;;;42.63;25.08;;;;;;;;;;5049661;28;20393;-60
2024/01/20 01:47:31;;;;;;;46.00;25.27;;;;;;;;;;5050412;28;20464;-60
2024/01/20 01:49:57;;;;;;;43.83;25.20;;;;;;;;;;5050867;28;20412;-60
2024/01/20 01:52:23;;;;;;;41.57;23.60;;;;;;;;;;5049634;28;20382;-60
2024/01/20 01:54:48;;;;;;;41.20;23.77;;;;;;;;;;5051174;28;20386;-60
2024/01/20 01:57:13;;;;;;;41.30;23.23;;;;;;;;;;5050309;28;20409;-60
2024/01/20 01:59:39;;;;;;;40.80;24.77;;;;;;;;;;5050105;28;20455;-60
2024/01/20 02:02:04;;;;;;;41.67;23.43;;;;;;;;;;5049870;28;20833;-60
2024/01/20 02:04:30;;;;;;;43.03;23.48;;;;;;;;;;5050667;28;20393;-60
2024/01/20 02:06:55;;;;;;;42.63;23.80;;;;;;;;;;5050093;28;20501;-60
2024/01/20 02:09:20;;;;;;;40.70;23.37;;;;;;;;;;5050060;28;20390;-60
2024/01/20 02:11:46;;;;;;;40.47;23.80;;;;;;;;;;5032976;28;20484;-60
2024/01/20 02:14:11;;;;;;;41.80;23.48;;;;;;;;;;5049310;28;20505;-60
2024/01/20 02:16:36;;;;;;;39.20;22.20;;;;;;;;;;5050668;28;20382;-60
2024/01/20 02:19:02;;;;;;;39.40;22.07;;;;;;;;;;5049861;28;20954;-61
2024/01/20 02:21:27;;;;;;;38.88;22.88;;;;;;;;;;5050074;28;20389;-60
2024/01/20 02:23:53;;;;;;;39.93;22.47;;;;;;;;;;5050201;28;20417;-60
2024/01/20 02:26:18;;;;;;;38.43;22.00;;;;;;;;;;5041011;28;21019;-61
2024/01/20 02:28:43;;;;;;;37.70;21.77;;;;;;;;;;5012041;28;20415;-60
2024/01/20 02:31:09;;;;;;;40.08;22.98;;;;;;;;;;5012306;28;20494;-61
2024/01/20 02:33:34;;;;;;;38.87;22.73;;;;;;;;;;5013820;28;20395;-60
2024/01/20 02:35:59;;;;;;;36.73;21.90;;;;;;;;;;5033808;28;20899;-60
2024/01/20 02:38:25;;;;;;;38.97;22.20;;;;;;;;;;5039633;28;20389;-60
2024/01/20 02:40:50;;;;;;;40.13;22.40;;;;;;;;;;5039352;28;20785;-60
2024/01/20 02:43:15;;;;;;;38.27;21.90;;;;;;;;;;5035380;28;20461;-61
2024/01/20 02:45:40;;;;;;;38.77;21.87;;;;;;;;;;5020546;28;20426;-60
2024/01/20 02:48:06;;;;;;;39.78;21.90;;;;;;;;;;5022545;28;22345;-61
2024/01/20 02:50:32;;;;;;;35.87;20.63;;;;;;;;;;5036964;28;20874;-60
2024/01/20 02:52:57;;;;;;;38.30;21.65;;;;;;;;;;5035759;28;20503;-60
2024/01/20 02:55:22;;;;;;;37.17;21.13;;;;;;;;;;5034117;28;20894;-61
2024/01/20 02:57:47;;;;;;;37.43;20.93;;;;;;;;;;5042672;28;20758;-60
2024/01/20 03:00:13;;;;;;;37.23;20.60;;;;;;;;;;5039654;28;20415;-60
2024/01/20 03:02:38;;;;;;;35.53;20.07;;;;;;;;;;5023371;28;20395;-60
2024/01/20 03:05:03;;;;;;;36.07;20.33;;;;;;;;;;5023426;28;20403;-60
2024/01/20 03:07:29;;;;;;;34.50;19.05;;;;;;;;;;5043544;28;20397;-60
2024/01/20 03:09:55;;;;;;;38.67;20.87;;;;;;;;;;5042976;28;20405;-60
2024/01/20 03:12:20;;;;;;;35.90;20.10;;;;;;;;;;5039097;28;20604;-61
2024/01/20 03:14:45;;;;;;;36.07;19.50;;;;;;;;;;5019980;28;20403;-60
2024/01/20 03:17:11;;;;;;;36.75;20.17;;;;;;;;;;5014258;28;20472;-61
2024/01/20 03:19:36;;;;;;;33.73;19.17;;;;;;;;;;5019679;28;20750;-61
2024/01/20 03:22:01;;;;;;;32.27;19.37;;;;;;;;;;5023150;28;20411;-62
2024/01/20 03:24:26;;;;;;;35.27;19.17;;;;;;;;;;5042296;28;20416;-61
2024/01/20 03:26:54;;;;;;;35.57;20.10;;;;;;;;;;5043238;28;20451;-60
2024/01/20 03:29:19;;;;;;;34.43;19.77;;;;;;;;;;5042428;28;20475;-61
2024/01/20 03:31:45;;;;;;;38.57;20.40;;;;;;;;;;5026157;28;20388;-61
2024/01/20 03:34:10;;;;;;;36.60;19.17;;;;;;;;;;5022477;28;20402;-61
2024/01/20 03:36:35;;;;;;;31.70;18.37;;;;;;;;;;5035189;28;20483;-61
2024/01/20 03:39:01;;;;;;;32.80;18.30;;;;;;;;;;5033242;28;20396;-61
2024/01/20 03:41:26;;;;;;;34.97;18.88;;;;;;;;;;5036073;28;20393;-61
2024/01/20 03:43:52;;;;;;;31.93;18.37;;;;;;;;;;5042088;28;20416;-61
2024/01/20 03:46:17;;;;;;;33.37;19.07;;;;;;;;;;5022283;28;20403;-61
2024/01/20 03:48:42;;;;;;;33.97;18.73;;;;;;;;;;5042014;28;20450;-60
2024/01/20 03:51:08;;;;;;;31.87;18.40;;;;;;;;;;5041495;28;20467;-60
2024/01/20 03:53:34;;;;;;;34.42;18.30;;;;;;;;;;5042845;28;20454;-60
2024/01/20 03:56:00;;;;;;;34.83;18.83;;;;;;;;;;5042761;28;20761;-60
2024/01/20 03:58:25;;;;;;;33.60;17.88;;;;;;;;;;5034665;28;20393;-60
2024/01/20 04:00:51;;;;;;;37.13;19.77;;;;;;;;;;5031259;28;20399;-61
2024/01/20 04:03:16;;;;;;;35.17;18.80;;;;;;;;;;5014345;28;20456;-60
2024/01/20 04:05:41;;;;;;;36.38;18.70;;;;;;;;;;5020487;28;20818;-60
2024/01/20 04:08:07;;;;;;;35.00;18.40;;;;;;;;;;5022800;28;20457;-61
2024/01/20 04:10:32;;;;;;;35.73;19.40;;;;;;;;;;5022678;28;20391;-61
2024/01/20 04:12:57;;;;;;;32.67;18.03;;;;;;;;;;5022398;28;20387;-60
2024/01/20 04:15:22;;;;;;;34.33;18.90;;;;;;;;;;5022275;28;20823;-61
2024/01/20 04:17:48;;;;;;;32.30;18.53;;;;;;;;;;5023202;28;20791;-60
2024/01/20 04:20:13;;;;;;;35.83;18.43;;;;;;;;;;5017313;28;20720;-61
2024/01/20 04:22:38;;;;;;;34.17;18.98;;;;;;;;;;5014462;28;20940;-61
2024/01/20 04:25:04;;;;;;;32.30;18.20;;;;;;;;;;5013970;28;20449;-61
2024/01/20 04:27:29;;;;;;;31.03;17.73;;;;;;;;;;5017262;28;20446;-61
2024/01/20 04:29:54;;;;;;;35.23;18.60;;;;;;;;;;5023127;28;20417;-61
2024/01/20 04:32:20;;;;;;;33.63;19.50;;;;;;;;;;5021808;28;20398;-61
2024/01/20 04:34:45;;;;;;;33.40;17.90;;;;;;;;;;5027981;28;20443;-61
2024/01/20 04:37:10;;;;;;;32.33;18.25;;;;;;;;;;5041336;28;20413;-61
2024/01/20 04:39:35;;;;;;;33.33;18.63;;;;;;;;;;5042045;28;20439;-61
2024/01/20 04:42:01;;;;;;;31.33;17.73;;;;;;;;;;5039406;28;20394;-62
2024/01/20 04:44:26;;;;;;;32.40;17.43;;;;;;;;;;5028927;28;20853;-60
2024/01/20 04:46:51;;;;;;;32.15;18.13;;;;;;;;;;5013799;28;20432;-61
2024/01/20 04:49:16;;;;;;;32.90;18.30;;;;;;;;;;5024327;28;20402;-60
2024/01/20 04:51:42;;;;;;;33.77;18.00;;;;;;;;;;5041143;28;20973;-60
2024/01/20 04:54:07;;;;;;;33.53;18.52;;;;;;;;;;5041423;28;20503;-61
2024/01/20 04:56:33;;;;;;;34.20;17.97;;;;;;;;;;5040725;28;20480;-61
2024/01/20 04:58:58;;;;;;;34.43;19.10;;;;;;;;;;5035755;28;20403;-60
2024/01/20 05:01:23;;;;;;;31.10;18.37;;;;;;;;;;5021509;28;20388;-60
2024/01/20 05:03:49;;;;;;;31.80;17.73;;;;;;;;;;5021582;28;20901;-60
2024/01/20 05:06:14;;;;;;;33.35;18.08;;;;;;;;;;5014870;28;20908;-60
2024/01/20 05:08:39;;;;;;;31.93;18.00;;;;;;;;;;5012920;28;20908;-61
2024/01/20 05:11:05;;;;;;;32.37;18.43;;;;;;;;;;5012955;28;20422;-61
2024/01/20 05:13:30;;;;;;;30.85;17.65;;;;;;;;;;5019703;28;20793;-60
2024/01/20 05:15:56;;;;;;;32.57;18.57;;;;;;;;;;5021113;28;20410;-60
2024/01/20 05:18:21;;;;;;;30.63;18.07;;;;;;;;;;5020744;28;20918;-60
2024/01/20 05:20:46;;;;;;;33.80;18.40;;;;;;;;;;5021406;28;20461;-60
2024/01/20 05:23:12;;;;;;;31.67;17.83;;;;;;;;;;5019946;28;20937;-61
2024/01/20 05:25:37;;;;;;;31.83;18.03;;;;;;;;;;5021973;28;20481;-61
2024/01/20 05:28:03;;;;;;;28.37;17.10;;;;;;;;;;5017315;28;20706;-61
2024/01/20 05:30:28;;;;;;;32.40;18.00;;;;;;;;;;5025250;28;20730;-60
2024/01/20 05:32:53;;;;;;;34.80;18.57;;;;;;;;;;5026134;28;20748;-60
2024/01/20 05:35:18;;;;;;;30.73;18.40;;;;;;;;;;5038834;28;20394;-61
2024/01/20 05:37:44;;;;;;;29.73;17.03;;;;;;;;;;5030199;28;20410;-60
2024/01/20 05:40:09;;;;;;;31.70;17.70;;;;;;;;;;5030845;28;20423;-61
2024/01/20 05:42:35;;;;;;;31.73;17.33;;;;;;;;;;5031186;28;20925;-60
2024/01/20 05:45:00;;;;;;;32.67;17.45;;;;;;;;;;5040416;28;20873;-60
2024/01/20 05:47:25;;;;;;;34.80;18.60;;;;;;;;;;5032660;28;20454;-61
2024/01/20 05:49:51;;;;;;;29.40;17.70;;;;;;;;;;5050981;28;20423;-60
2024/01/20 05:52:16;;;;;;;27.87;16.93;;;;;;;;;;5049092;28;20447;-61
2024/01/20 05:54:41;;;;;;;31.53;18.27;;;;;;;;;;5051103;28;20428;-60
2024/01/20 05:57:07;;;;;;;32.63;18.13;;;;;;;;;;5050226;28;20405;-61
2024/01/20 05:59:32;;;;;;;29.83;17.55;;;;;;;;;;5050386;28;20400;-61
2024/01/20 06:01:57;;;;;;;31.17;17.70;;;;;;;;;;5050731;28;20394;-60
2024/01/20 06:04:23;;;;;;;30.92;17.88;;;;;;;;;;5046394;28;20435;-60
2024/01/20 06:06:48;;;;;;;32.43;17.47;;;;;;;;;;5013447;28;20517;-61
2024/01/20 06:09:14;;;;;;;30.85;17.73;;;;;;;;;;5019169;28;20411;-61
2024/01/20 06:11:40;;;;;;;31.30;16.97;;;;;;;;;;5040270;28;20998;-60
2024/01/20 06:14:05;;;;;;;32.30;18.58;;;;;;;;;;5029230;28;20395;-60
2024/01/20 06:16:30;;;;;;;29.03;17.33;;;;;;;;;;5040095;28;20496;-61
2024/01/20 06:18:56;;;;;;;29.10;16.73;;;;;;;;;;5039651;28;20467;-60
2024/01/20 06:21:22;;;;;;;32.83;18.53;;;;;;;;;;5041929;28;20374;-61
2024/01/20 06:23:48;;;;;;;32.75;18.15;;;;;;;;;;5040193;28;20861;-61
2024/01/20 06:26:13;;;;;;;29.30;16.90;;;;;;;;;;5035231;28;21244;-61
2024/01/20 06:28:39;;;;;;;28.77;16.50;;;;;;;;;;5035681;28;20652;-60
2024/01/20 06:31:04;;;;;;;28.43;16.73;;;;;;;;;;5028180;28;20553;-61
2024/01/20 06:33:29;;;;;;;29.87;17.33;;;;;;;;;;5024042;28;20411;-60
2024/01/20 06:35:55;;;;;;;30.23;17.60;;;;;;;;;;5024481;28;20433;-61
2024/01/20 06:38:20;;;;;;;29.63;16.67;;;;;;;;;;5023466;28;20445;-60
2024/01/20 06:40:45;;;;;;;29.20;16.47;;;;;;;;;;5023927;28;20887;-60
2024/01/20 06:43:10;;;;;;;30.87;16.80;;;;;;;;;;5043314;28;20412;-61
2024/01/20 06:45:36;;;;;;;28.83;17.23;;;;;;;;;;5028331;28;20407;-61
2024/01/20 06:48:01;;;;;;;28.10;17.13;;;;;;;;;;5014893;28;20421;-61
2024/01/20 06:50:27;;;;;;;36.60;25.10;;;;;;;;;;5016234;28;20406;-60
2024/01/20 06:52:52;;;;;;;27.85;17.27;;;;;;;;;;5032356;28;20387;-60
2024/01/20 06:55:17;;;;;;;28.73;17.67;;;;;;;;;;5023446;28;20417;-61
2024/01/20 06:57:43;;;;;;;30.13;17.48;;;;;;;;;;5024347;28;20398;-61
2024/01/20 07:00:08;;;;;;;28.27;16.50;;;;;;;;;;5042934;28;20413;-61
2024/01/20 07:02:34;;;;;;;30.87;17.23;;;;;;;;;;5026047;28;20450;-60
2024/01/20 07:05:00;;;;;;;30.77;17.53;;;;;;;;;;5058634;28;20851;-60
2024/01/20 07:07:25;;;;;;;30.08;17.65;;;;;;;;;;5042777;28;20393;-60
2024/01/20 07:09:50;;;;;;;28.70;16.50;;;;;;;;;;5035614;28;20409;-61
2024/01/20 07:12:16;;;;;;;26.87;16.37;;;;;;;;;;5050620;28;20397;-61
2024/01/20 07:14:43;;;;;;;28.43;16.43;;;;;;;;;;5053661;28;20390;-62
2024/01/20 07:17:08;;;;;;;27.30;16.55;;;;;;;;;;5052617;28;20757;-63
2024/01/20 07:19:33;;;;;;;28.30;16.23;;;;;;;;;;5053768;28;20404;-61
2024/01/20 07:21:59;;;;;;;47.75;36.60;;;;;;;;;;5053470;28;20924;-59
2024/01/20 07:24:24;;;;;;;36.87;26.13;;;;;;;;;;5052039;28;20429;-60
2024/01/20 07:26:49;;;;;;;33.60;25.40;;;;;;;;;;5035913;28;20455;-60
2024/01/20 07:29:15;;;;;;;41.03;35.17;;;;;;;;;;5051516;28;20441;-59
2024/01/20 07:31:40;;;;;;;44.70;37.77;;;;;;;;;;5051466;28;20402;-60
2024/01/20 07:34:06;;;;;;;57.83;51.43;;;;;;;;;;5050179;28;20412;-60
2024/01/20 07:36:31;;;;;;;49.60;42.93;;;;;;;;;;5051280;28;20422;-60
2024/01/20 07:38:56;;;;;;;38.03;28.90;;;;;;;;;;5052637;28;20492;-60
2024/01/20 07:41:22;;;;;;;51.13;45.53;;;;;;;;;;5052125;28;20496;-60
2024/01/20 07:43:47;;;;;;;29.97;16.67;;;;;;;;;;5051866;28;20394;-60
2024/01/20 07:46:12;;;;;;;41.73;32.13;;;;;;;;;;5052191;28;20904;-60
2024/01/20 07:48:37;;;;;;;38.60;32.28;;;;;;;;;;5052725;28;20428;-60
2024/01/20 07:51:03;;;;;;;36.20;24.53;;;;;;;;;;5051161;28;20429;-61
2024/01/20 07:53:29;;;;;;;45.63;35.77;;;;;;;;;;5052512;28;20391;-60
2024/01/20 07:55:55;;;;;;;59.83;53.10;;;;;;;;;;5051994;28;20401;-60
2024/01/20 07:58:20;;;;;;;38.93;32.13;;;;;;;;;;5051698;28;20382;-60
2024/01/20 08:00:45;;;;;;;37.03;29.07;;;;;;;;;;5052350;28;20401;-60
2024/01/20 08:03:11;;;;;;;37.70;30.45;;;;;;;;;;5052438;28;20764;-60
2024/01/20 08:05:36;;;;;;;36.87;29.10;;;;;;;;;;5051572;28;20450;-60
2024/01/20 08:08:02;;;;;;;32.45;22.83;;;;;;;;;;5051851;28;20393;-61
2024/01/20 08:10:27;;;;;;;38.37;29.83;;;;;;;;;;5034376;28;20402;-60
2024/01/20 08:12:52;;;;;;;36.70;27.23;;;;;;;;;;5051767;28;20908;-60
2024/01/20 08:15:18;;;;;;;48.30;37.87;;;;;;;;;;5051452;28;20420;-60
2024/01/20 08:17:43;;;;;;;34.37;26.00;;;;;;;;;;5052296;28;20489;-60
2024/01/20 08:20:09;;;;;;;28.10;16.67;;;;;;;;;;5050458;28;20405;-60
2024/01/20 08:22:34;;;;;;;33.47;26.07;;;;;;;;;;5051836;28;20449;-59
2024/01/20 08:25:03;;;;;;;25.67;14.82;;;;;;;;;;5051737;28;20432;-60
2024/01/20 08:27:28;;;;;;;28.17;16.73;;;;;;;;;;5051012;28;20776;-61
2024/01/20 08:29:53;;;;;;;33.20;24.57;;;;;;;;;;5055225;28;20405;-59
2024/01/20 08:32:18;;;;;;;33.05;23.60;;;;;;;;;;5056767;28;20386;-60
2024/01/20 08:34:44;;;;;;;27.50;15.93;;;;;;;;;;5051283;28;20940;-60
2024/01/20 08:37:09;;;;;;;27.20;16.67;;;;;;;;;;5051410;28;20405;-61
2024/01/20 08:39:34;;;;;;;25.73;15.40;;;;;;;;;;5050632;28;20393;-60
2024/01/20 08:42:00;;;;;;;30.77;17.63;;;;;;;;;;5052096;28;20451;-61
2024/01/20 08:44:25;;;;;;;26.93;17.63;;;;;;;;;;5050448;28;20884;-61
2024/01/20 08:46:50;;;;;;;26.37;15.53;;;;;;;;;;5051513;28;20406;-61
2024/01/20 08:49:16;;;;;;;31.53;21.17;;;;;;;;;;5034111;28;20418;-61
2024/01/20 08:51:41;;;;;;;25.67;15.67;;;;;;;;;;5052097;28;20760;-61
2024/01/20 08:54:07;;;;;;;26.27;16.03;;;;;;;;;;5050656;28;20885;-61
2024/01/20 08:56:32;;;;;;;37.23;28.23;;;;;;;;;;5051502;28;20809;-61
2024/01/20 08:58:57;;;;;;;26.38;16.48;;;;;;;;;;5052146;28;20436;-61
2024/01/20 09:01:23;;;;;;;32.53;18.63;;;;;;;;;;5050419;28;20722;-61
2024/01/20 09:03:48;;;;;;;29.00;18.27;;;;;;;;;;5051960;28;20402;-61
2024/01/20 09:06:15;;;;;;;30.63;21.97;;;;;;;;;;5051355;28;20409;-61
2024/01/20 09:08:40;;;;;;;25.90;15.73;;;;;;;;;;5050843;28;20870;-61
2024/01/20 09:11:05;;;;;;;24.87;15.20;;;;;;;;;;5050718;28;20497;-61
2024/01/20 09:13:31;;;;;;;24.73;15.10;;;;;;;;;;5051825;28;20404;-61
2024/01/20 09:15:56;;;;;;;23.60;14.80;;;;;;;;;;5050762;28;20484;-61
2024/01/20 09:18:21;;;;;;;26.77;16.73;;;;;;;;;;5051035;28;20420;-61
2024/01/20 09:20:47;;;;;;;28.13;18.57;;;;;;;;;;5051620;28;20397;-61
2024/01/20 09:23:12;;;;;;;34.97;24.87;;;;;;;;;;5049930;28;20398;-61
2024/01/20 09:25:38;;;;;;;24.20;15.43;;;;;;;;;;5051051;28;20458;-61
2024/01/20 09:28:04;;;;;;;23.63;15.73;;;;;;;;;;5050888;28;20401;-61
2024/01/20 09:30:29;;;;;;;22.80;14.60;;;;;;;;;;5050522;28;20908;-61
2024/01/20 09:32:55;;;;;;;35.33;23.92;;;;;;;;;;5051474;28;20409;-61
2024/01/20 09:35:20;;;;;;;23.67;14.73;;;;;;;;;;5050872;28;20899;-61
2024/01/20 09:37:45;;;;;;;29.93;22.37;;;;;;;;;;5050409;28;20786;-61
2024/01/20 09:40:11;;;;;;;25.92;16.17;;;;;;;;;;5050521;28;20390;-62
2024/01/20 09:42:36;;;;;;;29.33;21.23;;;;;;;;;;5050840;28;20397;-61
2024/01/20 09:45:02;;;;;;;22.67;14.73;;;;;;;;;;5050036;28;20888;-62
2024/01/20 09:47:27;;;;;;;27.33;16.67;;;;;;;;;;5051132;28;20405;-62
2024/01/20 09:49:53;;;;;;;25.93;14.73;;;;;;;;;;5050302;28;20769;-61
2024/01/20 09:52:24;;;;;;;27.20;17.60;;;;;;;;;;5050504;28;20792;-61
2024/01/20 09:54:54;;;;;;;28.98;17.73;;;;;;;;;;5033038;28;20484;-61
2024/01/20 09:57:19;;;;;;;25.17;15.67;;;;;;;;;;5031602;28;20409;-61
2024/01/20 09:59:45;;;;;;;25.23;15.33;;;;;;;;;;5051210;28;20459;-61
2024/01/20 10:02:10;;;;;;;26.27;15.57;;;;;;;;;;5032658;28;20475;-62
2024/01/20 10:04:35;;;;;;;24.73;15.60;;;;;;;;;;5050317;28;20873;-61
2024/01/20 10:07:01;;;;;;;25.87;15.60;;;;;;;;;;5032576;28;20397;-63
2024/01/20 10:09:28;;;;;;;25.40;15.40;;;;;;;;;;5050734;28;20413;-62
2024/01/20 10:11:53;;;;;;;25.25;15.93;;;;;;;;;;5049787;28;20488;-61
2024/01/20 10:14:19;;;;;;;25.70;16.13;;;;;;;;;;5050149;28;20484;-62
2024/01/20 10:16:44;;;;;;;24.20;15.73;;;;;;;;;;5050880;28;20405;-62
2024/01/20 10:19:09;;;;;;;24.87;15.90;;;;;;;;;;5049452;28;20885;-62
2024/01/20 10:21:39;;;;;;;26.27;15.83;;;;;;;;;;5050619;28;20508;-61
2024/01/20 10:24:05;;;;;;;23.83;15.35;;;;;;;;;;5010764;28;20496;-62
2024/01/20 10:26:31;;;;;;;24.75;15.70;;;;;;;;;;5008404;28;20407;-62
2024/01/20 10:28:56;;;;;;;25.43;15.77;;;;;;;;;;5011087;28;20429;-61
2024/01/20 10:31:21;;;;;;;24.25;15.02;;;;;;;;;;5010573;28;20413;-61
2024/01/20 10:33:48;;;;;;;24.43;15.07;;;;;;;;;;5010448;28;20955;-61
2024/01/20 10:36:13;;;;;;;23.33;14.38;;;;;;;;;;5010733;28;20760;-60
2024/01/20 10:38:39;;;;;;;23.70;15.10;;;;;;;;;;5009720;28;20389;-61
2024/01/20 10:41:04;;;;;;;23.60;14.83;;;;;;;;;;5009878;28;20907;-62
2024/01/20 10:43:30;;;;;;;23.38;14.75;;;;;;;;;;5009558;28;20476;-60
2024/01/20 10:46:00;;;;;;;28.10;15.63;;;;;;;;;;5009787;28;20491;-61
2024/01/20 10:48:26;;;;;;;24.90;15.77;;;;;;;;;;5008460;28;20404;-61
2024/01/20 10:50:53;;;;;;;24.70;15.02;;;;;;;;;;5010946;28;20393;-61
2024/01/20 10:53:18;;;;;;;22.83;15.10;;;;;;;;;;4992109;28;20487;-60
2024/01/20 10:55:45;;;;;;;23.67;14.90;;;;;;;;;;5010728;28;20930;-62
2024/01/20 10:58:10;;;;;;;21.92;14.35;;;;;;;;;;5009558;28;20397;-63
2024/01/20 11:00:37;;;;;;;25.17;14.70;;;;;;;;;;5009670;28;20455;-61
2024/01/20 11:03:02;;;;;;;23.23;14.63;;;;;;;;;;5008972;28;20400;-61
2024/01/20 11:05:28;;;;;;;21.75;14.10;;;;;;;;;;5042476;28;20409;-60
2024/01/20 11:07:56;;;;;;;24.03;15.57;;;;;;;;;;5011504;28;20396;-61
2024/01/20 11:10:22;;;;;;;23.33;15.32;;;;;;;;;;5014089;28;20393;-61
2024/01/20 11:12:57;;;;;;;24.90;16.27;;;;;;;;;;5014408;28;20940;-61
2024/01/20 11:15:22;;;;;;;23.90;15.67;;;;;;;;;;5024825;28;20390;-61
2024/01/20 11:17:47;;;;;;;27.20;15.33;;;;;;;;;;5026038;28;20394;-61
2024/01/20 11:20:13;;;;;;;25.00;15.27;;;;;;;;;;4994345;28;20806;-61
2024/01/20 11:22:39;;;;;;;25.30;15.37;;;;;;;;;;5014331;28;20912;-61
2024/01/20 11:25:05;;;;;;;22.70;14.93;;;;;;;;;;5053433;28;20397;-61
2024/01/20 11:27:31;;;;;;;24.58;14.95;;;;;;;;;;5053694;28;20405;-61
2024/01/20 11:30:07;;;;;;;26.97;15.67;;;;;;;;;;5050590;28;20411;-61
2024/01/20 11:32:33;;;;;;;25.98;15.52;;;;;;;;;;5073264;28;20391;-61
2024/01/20 11:34:59;;;;;;;24.20;15.53;;;;;;;;;;5073732;28;20407;-65
2024/01/20 11:37:24;;;;;;;22.95;15.10;;;;;;;;;;5072299;28;20376;-64
2024/01/20 11:39:49;;;;;;;25.10;15.43;;;;;;;;;;5073764;28;20404;-63
2024/01/20 11:42:19;;;;;;;24.57;15.97;;;;;;;;;;5073156;28;20398;-63
2024/01/20 11:44:44;;;;;;;26.77;15.93;;;;;;;;;;5064372;28;20401;-63
2024/01/20 11:47:09;;;;;;;25.83;15.57;;;;;;;;;;5052865;28;20398;-64
2024/01/20 11:49:35;;;;;;;23.83;15.87;;;;;;;;;;5052581;28;20413;-63
2024/01/20 11:52:00;;;;;;;23.73;15.50;;;;;;;;;;5035631;28;20389;-64
2024/01/20 11:54:25;;;;;;;24.30;15.70;;;;;;;;;;5053089;28;20392;-64
2024/01/20 11:56:55;;;;;;;24.27;15.83;;;;;;;;;;5052892;28;20404;-63
2024/01/20 11:59:21;;;;;;;22.70;15.00;;;;;;;;;;5051816;28;20447;-62
2024/01/20 12:01:46;;;;;;;23.57;14.70;;;;;;;;;;5052595;28;20799;-62
2024/01/20 12:04:11;;;;;;;22.80;15.23;;;;;;;;;;5051784;28;20799;-62
2024/01/20 12:06:37;;;;;;;22.13;14.83;;;;;;;;;;5053269;28;20398;-62
2024/01/20 12:09:03;;;;;;;23.92;15.27;;;;;;;;;;5052414;28;20971;-62
2024/01/20 12:11:29;;;;;;;23.65;15.48;;;;;;;;;;5052176;28;20401;-63
2024/01/20 12:13:55;;;;;;;25.00;15.63;;;;;;;;;;5052495;28;20405;-63
2024/01/20 12:16:20;;;;;;;22.70;15.13;;;;;;;;;;5051417;28;20393;-63
2024/01/20 12:18:46;;;;;;;22.00;14.60;;;;;;;;;;5051718;28;20429;-63
2024/01/20 12:21:11;;;;;;;24.63;15.50;;;;;;;;;;5052192;28;20451;-62
2024/01/20 12:23:36;;;;;;;20.37;13.83;;;;;;;;;;5052377;28;20406;-62
2024/01/20 12:26:01;;;;;;;20.57;13.77;;;;;;;;;;5051171;28;20394;-63
2024/01/20 12:28:27;;;;;;;21.67;14.47;;;;;;;;;;5052635;28;20400;-62
2024/01/20 12:30:52;;;;;;;22.75;14.40;;;;;;;;;;5033697;28;20409;-62
2024/01/20 12:33:17;;;;;;;20.50;13.63;;;;;;;;;;5051359;28;20412;-62
2024/01/20 12:35:43;;;;;;;20.70;13.93;;;;;;;;;;5052877;28;20398;-61
2024/01/20 12:38:08;;;;;;;24.23;15.70;;;;;;;;;;5051798;28;21004;-61
2024/01/20 12:40:33;;;;;;;24.40;16.27;;;;;;;;;;5051553;28;20389;-62
2024/01/20 12:42:58;;;;;;;26.53;16.77;;;;;;;;;;5051933;28;20973;-62
2024/01/20 12:45:24;;;;;;;26.80;16.80;;;;;;;;;;5050978;28;20396;-64
2024/01/20 12:47:49;;;;;;;24.63;16.80;;;;;;;;;;5051015;28;20406;-64
2024/01/20 12:50:15;;;;;;;24.27;16.47;;;;;;;;;;5058052;28;20778;-64
2024/01/20 12:52:40;;;;;;;23.95;15.75;;;;;;;;;;5044763;28;20800;-64
2024/01/20 12:55:06;;;;;;;25.60;16.50;;;;;;;;;;5051613;28;20407;-65
2024/01/20 12:57:31;;;;;;;25.38;16.40;;;;;;;;;;5051869;28;20412;-63
2024/01/20 12:59:57;;;;;;;24.73;16.13;;;;;;;;;;5050855;28;20752;-65
2024/01/20 13:02:22;;;;;;;22.67;15.63;;;;;;;;;;5050960;28;20397;-64
2024/01/20 13:04:47;;;;;;;24.70;15.70;;;;;;;;;;5051858;28;20405;-65
2024/01/20 13:07:13;;;;;;;23.53;15.20;;;;;;;;;;5050687;28;20493;-62
2024/01/20 13:09:38;;;;;;;24.67;16.20;;;;;;;;;;5051697;28;20401;-62
2024/01/20 13:12:03;;;;;;;25.73;15.40;;;;;;;;;;5050832;28;20543;-62
2024/01/20 13:14:29;;;;;;;25.35;16.42;;;;;;;;;;5050657;28;20409;-61
2024/01/20 13:16:54;;;;;;;24.50;15.20;;;;;;;;;;5051221;28;20425;-61
2024/01/20 13:19:19;;;;;;;26.23;16.13;;;;;;;;;;5051227;28;20473;-61
2024/01/20 13:21:45;;;;;;;24.60;15.93;;;;;;;;;;5050744;28;20432;-61
2024/01/20 13:24:10;;;;;;;21.70;14.87;;;;;;;;;;5050850;28;20913;-62
2024/01/20 13:26:35;;;;;;;21.70;14.17;;;;;;;;;;5051413;28;20472;-61
2024/01/20 13:29:00;;;;;;;22.33;14.70;;;;;;;;;;5050002;28;20412;-64
2024/01/20 13:31:26;;;;;;;22.58;14.70;;;;;;;;;;5050512;28;20425;-62
2024/01/20 13:33:51;;;;;;;22.40;14.43;;;;;;;;;;5051290;28;20889;-61
2024/01/20 13:36:16;;;;;;;22.53;14.57;;;;;;;;;;5049967;28;20428;-61
2024/01/20 13:38:43;;;;;;;20.77;13.97;;;;;;;;;;5051566;28;20404;-61
2024/01/20 13:41:08;;;;;;;21.55;14.45;;;;;;;;;;5050756;28;20405;-62
2024/01/20 13:43:33;;;;;;;22.93;14.50;;;;;;;;;;5032593;28;20397;-61
2024/01/20 13:45:59;;;;;;;22.40;13.70;;;;;;;;;;5050682;28;20401;-61
2024/01/20 13:48:24;;;;;;;21.63;13.70;;;;;;;;;;5050524;28;20504;-61
2024/01/20 13:50:49;;;;;;;20.60;13.47;;;;;;;;;;5050448;28;20429;-61
2024/01/20 13:53:15;;;;;;;20.23;13.60;;;;;;;;;;5050601;28;20476;-61
2024/01/20 13:55:40;;;;;;;20.17;13.65;;;;;;;;;;5051042;28;20464;-61
2024/01/20 13:58:06;;;;;;;21.53;14.17;;;;;;;;;;5049418;28;20418;-61
2024/01/20 14:00:31;;;;;;;22.27;14.02;;;;;;;;;;5050604;28;20401;-61
2024/01/20 14:02:57;;;;;;;21.80;14.10;;;;;;;;;;5050660;28;20386;-61
2024/01/20 14:05:22;;;;;;;21.73;13.97;;;;;;;;;;5049697;28;20943;-62